Time;durP1;ratioP1;P1;durP2;ratioP2;P2;SDS_P1;SDS_P2;PMS_P1;PMS_P2;Temp;Humidity;BMP_temperature;BMP_pressure;BME280_temperature;BME280_humidity;BME280_pressure;Samples;Min_cycle;Max_cycle;Signal;HPM_P1;HPM_P2
2022/01/27 00:02:33;;;;;;;18.40;11.80;;;;;;;1.42;83.66;100301.44;106630;1284;108657;-72
2022/01/27 00:05:11;;;;;;;18.30;11.90;;;;;;;1.41;83.74;100300.23;106611;1283;139490;-72
2022/01/27 00:07:41;;;;;;;21.20;12.40;;;;;;;1.42;83.99;100298.86;106746;1283;96312;-72
2022/01/27 00:10:19;;;;;;;21.10;11.90;;;;;;;1.42;83.82;100302.45;106761;1283;111228;-73
2022/01/27 00:12:49;;;;;;;19.90;12.70;;;;;;;1.44;83.78;100297.52;106678;1282;138132;-72
2022/01/27 00:15:22;;;;;;;20.60;12.70;;;;;;;1.43;83.93;100303.48;106574;1284;109113;-72
2022/01/27 00:17:58;;;;;;;20.50;12.80;;;;;;;1.38;83.59;100295.93;107102;1279;138287;-72
2022/01/27 00:20:27;;;;;;;20.20;12.80;;;;;;;1.29;83.61;100290.59;107159;1279;96469;-73
2022/01/27 00:22:56;;;;;;;18.40;11.70;;;;;;;1.24;83.87;100289.85;107277;1274;112526;-72
2022/01/27 00:25:24;;;;;;;20.40;12.50;;;;;;;1.24;83.92;100291.22;107492;1274;138377;-72
2022/01/27 00:27:53;;;;;;;18.60;11.70;;;;;;;1.19;84.00;100284.17;107559;1274;109184;-72
2022/01/27 00:30:22;;;;;;;19.20;12.20;;;;;;;1.17;84.08;100283.30;107503;1274;138773;-72
2022/01/27 00:32:51;;;;;;;18.60;11.70;;;;;;;1.13;84.21;100281.41;107643;1274;96145;-71
2022/01/27 00:35:20;;;;;;;20.30;12.80;;;;;;;1.11;84.46;100280.71;107495;1274;138223;-72
2022/01/27 00:37:48;;;;;;;20.70;12.90;;;;;;;1.13;84.46;100286.02;107618;1274;108839;-72
2022/01/27 00:40:17;;;;;;;21.40;13.00;;;;;;;1.17;84.70;100284.85;107654;1274;107027;-72
2022/01/27 00:42:45;;;;;;;23.00;13.50;;;;;;;1.18;84.64;100287.42;107468;1274;137800;-72
2022/01/27 00:45:14;;;;;;;20.40;13.80;;;;;;;1.18;84.62;100288.45;107653;1274;96110;-72
2022/01/27 00:47:43;;;;;;;22.40;12.80;;;;;;;1.14;84.46;100286.04;107389;1275;139903;-72
2022/01/27 00:50:15;;;;;;;17.60;10.80;;;;;;;1.13;84.51;100281.92;107613;1274;109054;-72
2022/01/27 00:52:48;;;;;;;19.80;11.50;;;;;;;1.13;84.62;100281.75;107653;1274;108976;-72
2022/01/27 00:55:18;;;;;;;17.90;11.50;;;;;;;1.14;84.63;100283.98;107424;1274;138728;-73
2022/01/27 00:58:02;;;;;;;18.30;11.40;;;;;;;1.13;84.65;100280.55;107655;1273;95914;-72
2022/01/27 01:00:34;;;;;;;16.90;11.30;;;;;;;1.13;84.69;100287.40;107531;1274;137873;-72
2022/01/27 01:03:07;;;;;;;19.80;12.60;;;;;;;1.13;84.64;100287.91;107624;1274;108839;-73
2022/01/27 01:11:29;;;;;;;17.80;11.60;;;;;;;1.08;84.79;100290.80;107481;1274;138594;-72
2022/01/27 01:16:56;;;;;;;17.20;11.30;;;;;;;1.11;84.95;100284.98;107542;1276;109101;-72
2022/01/27 01:19:36;;;;;;;16.00;10.70;;;;;;;1.14;84.81;100281.23;107495;1274;139995;-73
2022/01/27 01:29:25;;;;;;;20.50;12.10;;;;;;;1.17;84.85;100276.11;107608;1273;97074;-72
2022/01/27 01:30:47;;;;;;;22.60;13.60;;;;;;;1.18;84.81;100277.49;107508;1274;137848;-72
2022/01/27 01:33:22;;;;;;;22.60;12.70;;;;;;;1.16;84.84;100278.34;107585;1274;108529;-72
2022/01/27 01:36:01;;;;;;;23.60;13.60;;;;;;;1.13;84.87;100278.32;107485;1273;139313;-73
2022/01/27 01:38:30;;;;;;;22.70;13.50;;;;;;;1.12;84.70;100279.86;107495;1276;96311;-73
2022/01/27 01:40:59;;;;;;;26.50;13.70;;;;;;;1.14;85.01;100280.55;107641;1273;111546;-73
2022/01/27 01:43:28;;;;;;;24.10;13.80;;;;;;;1.17;85.10;100275.09;107535;1274;139255;-71
2022/01/27 01:45:57;;;;;;;25.70;14.40;;;;;;;1.19;85.00;100274.41;107568;1273;108857;-71
2022/01/27 01:48:26;;;;;;;26.50;15.20;;;;;;;1.20;85.07;100270.13;107522;1274;138313;-71
2022/01/27 01:50:55;;;;;;;26.30;15.10;;;;;;;1.19;85.08;100266.53;107678;1272;96255;-71
2022/01/27 01:53:24;;;;;;;30.50;16.20;;;;;;;1.19;85.02;100269.10;107521;1273;138249;-71
2022/01/27 01:55:52;;;;;;;32.30;16.00;;;;;;;1.16;85.15;100264.64;107634;1273;109028;-71
2022/01/27 01:58:21;;;;;;;28.70;15.80;;;;;;;1.16;85.17;100266.52;107620;1273;108169;-71
2022/01/27 02:00:50;;;;;;;32.30;15.90;;;;;;;1.14;85.15;100263.77;107460;1273;138717;-70
2022/01/27 02:03:18;;;;;;;27.50;14.80;;;;;;;1.13;85.14;100262.73;107659;1274;96184;-71
2022/01/27 02:05:52;;;;;;;27.00;15.00;;;;;;;1.13;85.30;100266.51;107486;1274;139246;-73
2022/01/27 02:08:37;;;;;;;29.10;14.90;;;;;;;1.18;85.41;100264.98;107632;1273;109161;-73
2022/01/27 02:19:29;;;;;;;31.90;17.30;;;;;;;1.18;85.37;100256.25;107532;1273;138023;-71
2022/01/27 02:22:00;;;;;;;40.60;17.90;;;;;;;1.15;85.44;100254.86;107653;1273;108074;-71
2022/01/27 02:24:31;;;;;;;35.40;17.30;;;;;;;1.11;85.48;100252.80;107395;1276;139484;-73
2022/01/27 02:27:00;;;;;;;36.80;17.90;;;;;;;1.10;85.57;100253.65;107558;1274;96050;-73
2022/01/27 02:29:30;;;;;;;35.80;17.00;;;;;;;1.10;85.71;100248.86;107649;1272;96209;-73
2022/01/27 02:32:00;;;;;;;35.60;16.60;;;;;;;1.11;85.72;100242.52;107498;1273;138613;-73
2022/01/27 02:34:28;;;;;;;34.80;16.30;;;;;;;1.14;85.82;100239.63;107633;1273;109044;-73
2022/01/27 02:36:57;;;;;;;32.90;16.60;;;;;;;1.19;85.86;100238.79;107456;1273;139430;-73
2022/01/27 02:39:26;;;;;;;41.50;18.30;;;;;;;1.20;85.67;100232.97;107616;1273;96125;-73
2022/01/27 02:42:02;;;;;;;35.70;17.60;;;;;;;1.21;85.76;100227.66;107592;1273;139456;-73
2022/01/27 02:44:43;;;;;;;40.90;19.10;;;;;;;1.20;85.58;100223.04;107576;1274;112721;-73
2022/01/27 02:47:12;;;;;;;38.20;19.50;;;;;;;1.17;85.73;100218.58;107482;1275;109384;-73
2022/01/27 02:49:41;;;;;;;34.60;17.50;;;;;;;1.17;85.83;100219.60;107551;1273;138594;-73
2022/01/27 02:52:13;;;;;;;35.60;18.10;;;;;;;1.17;85.90;100224.57;107536;1274;96520;-73
2022/01/27 02:54:43;;;;;;;36.30;17.10;;;;;;;1.20;85.99;100225.09;107504;1274;139189;-73
2022/01/27 02:57:25;;;;;;;37.70;17.60;;;;;;;1.21;85.94;100220.98;107645;1274;112557;-73
2022/01/27 02:59:53;;;;;;;43.30;18.10;;;;;;;1.20;85.82;100217.55;107491;1273;138763;-73
2022/01/27 03:02:23;;;;;;;38.20;18.10;;;;;;;1.20;85.97;100210.36;107587;1274;109444;-73
2022/01/27 03:04:51;;;;;;;36.10;18.40;;;;;;;1.20;86.01;100204.71;107502;1274;96184;-73
2022/01/27 03:07:20;;;;;;;39.20;19.20;;;;;;;1.18;85.98;100207.10;107444;1274;139339;-73
2022/01/27 03:09:49;;;;;;;45.50;20.40;;;;;;;1.19;86.07;100205.05;107596;1273;112662;-72
2022/01/27 03:12:20;;;;;;;44.60;20.10;;;;;;;1.21;86.10;100210.54;107505;1274;139517;-73
2022/01/27 03:14:48;;;;;;;47.00;20.40;;;;;;;1.22;86.07;100210.71;107528;1274;108772;-73
2022/01/27 03:17:17;;;;;;;41.00;18.50;;;;;;;1.22;86.09;100202.48;107490;1276;96162;-73
2022/01/27 03:19:46;;;;;;;36.30;18.40;;;;;;;1.23;85.99;100198.72;107472;1272;138894;-73
2022/01/27 03:22:14;;;;;;;37.40;18.40;;;;;;;1.25;86.08;100196.00;107590;1273;112884;-73
2022/01/27 03:24:43;;;;;;;41.20;19.00;;;;;;;1.25;85.95;100196.84;107527;1274;140592;-73
2022/01/27 03:27:17;;;;;;;38.70;18.50;;;;;;;1.23;86.10;100200.09;107520;1274;108793;-73
2022/01/27 03:29:46;;;;;;;39.50;18.20;;;;;;;1.24;86.06;100190.85;107502;1274;138945;-73
2022/01/27 03:32:15;;;;;;;45.20;19.20;;;;;;;1.26;86.22;100191.20;107642;1271;95739;-73
2022/01/27 03:34:44;;;;;;;42.10;20.40;;;;;;;1.27;86.12;100192.77;107590;1273;112398;-73
2022/01/27 03:37:12;;;;;;;43.30;20.10;;;;;;;1.27;86.10;100197.22;107538;1274;137920;-72
2022/01/27 03:39:42;;;;;;;43.80;19.30;;;;;;;1.27;86.23;100196.70;107642;1273;107931;-72
2022/01/27 03:42:13;;;;;;;39.30;19.30;;;;;;;1.27;86.29;100197.58;107499;1273;139007;-72
2022/01/27 03:44:41;;;;;;;40.30;18.60;;;;;;;1.25;86.19;100194.45;107621;1274;96014;-72
2022/01/27 03:47:10;;;;;;;44.30;19.00;;;;;;;1.23;86.14;100199.06;107608;1274;113171;-73
2022/01/27 03:49:39;;;;;;;38.70;18.20;;;;;;;1.20;86.32;100198.71;107506;1273;138513;-73
2022/01/27 03:52:07;;;;;;;36.50;18.50;;;;;;;1.21;86.33;100200.60;107631;1274;108967;-73
2022/01/27 03:54:36;;;;;;;39.10;18.80;;;;;;;1.23;86.48;100198.73;107428;1274;138725;-73
2022/01/27 03:57:05;;;;;;;41.00;18.40;;;;;;;1.27;86.58;100198.77;107642;1274;96242;-72
2022/01/27 03:59:34;;;;;;;44.00;19.60;;;;;;;1.30;86.46;100195.70;107624;1274;112449;-73
2022/01/27 04:02:04;;;;;;;45.40;20.20;;;;;;;1.33;86.39;100193.30;107511;1272;137626;-73
2022/01/27 04:04:34;;;;;;;46.60;19.40;;;;;;;1.33;86.37;100189.54;107501;1275;109181;-73
2022/01/27 04:07:03;;;;;;;48.80;20.50;;;;;;;1.31;86.23;100182.16;107511;1274;138623;-72
2022/01/27 04:09:32;;;;;;;43.40;19.10;;;;;;;1.28;86.16;100172.23;107470;1276;96108;-72
2022/01/27 04:12:00;;;;;;;39.50;17.50;;;;;;;1.27;86.25;100169.14;107494;1273;139022;-72
2022/01/27 04:14:29;;;;;;;38.70;18.90;;;;;;;1.27;86.35;100166.58;107580;1275;107931;-73
2022/01/27 04:16:57;;;;;;;40.20;16.90;;;;;;;1.28;86.38;100168.11;107565;1273;109123;-72
2022/01/27 04:19:26;;;;;;;39.60;17.40;;;;;;;1.28;86.14;100171.20;107515;1274;142173;-72
2022/01/27 04:21:55;;;;;;;38.70;17.80;;;;;;;1.31;86.20;100171.88;107660;1273;95767;-73
2022/01/27 04:24:23;;;;;;;36.80;16.90;;;;;;;1.33;86.21;100176.52;107516;1273;139316;-72
2022/01/27 04:27:01;;;;;;;40.90;17.60;;;;;;;1.33;86.19;100173.43;107517;1275;108993;-72
2022/01/27 04:29:32;;;;;;;35.40;17.30;;;;;;;1.35;86.12;100168.81;107611;1273;109190;-73
2022/01/27 04:32:06;;;;;;;37.20;17.70;;;;;;;1.34;85.98;100166.75;107461;1273;137844;-73
2022/01/27 04:34:38;;;;;;;41.10;17.20;;;;;;;1.34;85.96;100167.61;107660;1274;96186;-73
2022/01/27 04:37:08;;;;;;;37.00;16.40;;;;;;;1.35;85.96;100155.96;107409;1274;139109;-73
2022/01/27 04:39:42;;;;;;;34.80;15.80;;;;;;;1.36;85.94;100159.39;107643;1273;109526;-73
2022/01/27 04:42:18;;;;;;;34.40;15.60;;;;;;;1.38;85.88;100154.26;107407;1276;139272;-73
2022/01/27 04:45:09;;;;;;;37.50;15.80;;;;;;;1.40;85.81;100155.46;107571;1273;96121;-73
2022/01/27 04:47:44;;;;;;;34.00;15.70;;;;;;;1.44;85.79;100154.98;107583;1273;138772;-72
2022/01/27 04:50:12;;;;;;;31.50;14.70;;;;;;;1.48;85.64;100152.25;107563;1274;112348;-72
2022/01/27 04:52:45;;;;;;;34.20;16.30;;;;;;;1.50;85.65;100148.30;107427;1275;109256;-72
2022/01/27 04:55:15;;;;;;;38.00;16.80;;;;;;;1.52;85.58;100152.60;107307;1273;217768;-72
2022/01/27 04:57:45;;;;;;;33.70;15.30;;;;;;;1.51;85.38;100152.42;107583;1274;96221;-72
2022/01/27 05:00:16;;;;;;;34.00;15.30;;;;;;;1.47;85.45;100153.45;107515;1274;138688;-72
2022/01/27 05:02:49;;;;;;;35.90;15.20;;;;;;;1.48;85.37;100150.71;107616;1273;112473;-72
2022/01/27 05:05:21;;;;;;;37.10;16.10;;;;;;;1.47;85.37;100151.22;107530;1275;109005;-72
2022/01/27 05:07:56;;;;;;;32.70;15.50;;;;;;;1.49;85.39;100148.82;107481;1274;138716;-71
2022/01/27 05:10:32;;;;;;;33.80;15.20;;;;;;;1.53;85.36;100133.06;107599;1273;96349;-71
2022/01/27 05:13:08;;;;;;;32.50;15.30;;;;;;;1.52;85.25;100127.23;107476;1275;138001;-72
2022/01/27 05:15:42;;;;;;;37.00;16.20;;;;;;;1.50;85.33;100116.44;107655;1273;113394;-72
2022/01/27 05:18:12;;;;;;;40.60;16.60;;;;;;;1.50;85.11;100112.67;107519;1273;143552;-71
2022/01/27 05:20:40;;;;;;;40.40;16.70;;;;;;;1.47;85.30;100110.95;107611;1274;108695;-72
2022/01/27 05:23:09;;;;;;;37.40;16.40;;;;;;;1.46;85.31;100112.50;107484;1274;96087;-73
2022/01/27 05:25:37;;;;;;;38.30;16.10;;;;;;;1.43;85.17;100111.44;107457;1273;139284;-71
2022/01/27 05:28:06;;;;;;;34.20;16.20;;;;;;;1.45;85.38;100111.80;107637;1274;112804;-71
2022/01/27 05:30:35;;;;;;;38.90;16.00;;;;;;;1.46;85.49;100113.52;107509;1273;138714;-72
2022/01/27 05:33:04;;;;;;;35.70;16.60;;;;;;;1.45;85.14;100113.35;107631;1273;109289;-71
2022/01/27 05:35:33;;;;;;;38.10;17.60;;;;;;;1.44;85.45;100107.69;107628;1273;96205;-72
2022/01/27 05:38:01;;;;;;;37.80;18.00;;;;;;;1.46;85.47;100111.47;107462;1273;138197;-72
2022/01/27 05:40:30;;;;;;;42.00;18.40;;;;;;;1.46;85.56;100107.52;107618;1274;111927;-71
2022/01/27 05:42:59;;;;;;;40.40;18.40;;;;;;;1.45;85.52;100106.50;107456;1274;138020;-71
2022/01/27 05:45:27;;;;;;;37.50;17.80;;;;;;;1.42;85.55;100107.49;107573;1274;108922;-71
2022/01/27 05:47:56;;;;;;;39.30;18.40;;;;;;;1.41;85.57;100104.40;107496;1274;139000;-72
2022/01/27 05:50:25;;;;;;;40.00;17.40;;;;;;;1.43;85.73;100095.01;107560;1274;95881;-72
2022/01/27 05:52:53;;;;;;;39.10;18.40;;;;;;;1.44;85.71;100089.69;107580;1273;113636;-71
2022/01/27 05:55:22;;;;;;;43.70;18.80;;;;;;;1.46;85.78;100090.92;107418;1275;139868;-72
2022/01/27 05:57:51;;;;;;;44.70;19.00;;;;;;;1.48;85.80;100092.97;107624;1273;107898;-71
2022/01/27 06:00:21;;;;;;;40.90;19.80;;;;;;;1.47;85.70;100095.88;107514;1273;138178;-71
2022/01/27 06:02:49;;;;;;;42.80;19.70;;;;;;;1.50;85.88;100097.95;107700;1273;95763;-71
2022/01/27 06:05:18;;;;;;;41.80;19.90;;;;;;;1.54;85.97;100092.11;107619;1273;112596;-72
2022/01/27 06:07:46;;;;;;;44.90;20.10;;;;;;;1.51;85.88;100087.14;107488;1274;138753;-72
2022/01/27 06:10:15;;;;;;;41.80;18.40;;;;;;;1.47;85.85;100079.09;107628;1274;108877;-71
2022/01/27 06:12:48;;;;;;;40.10;19.00;;;;;;;1.43;85.98;100078.55;107441;1274;140046;-71
2022/01/27 06:15:17;;;;;;;42.50;18.50;;;;;;;1.42;86.03;100071.00;107620;1273;95961;-71
2022/01/27 06:17:46;;;;;;;36.10;18.00;;;;;;;1.43;86.15;100073.58;107529;1273;139412;-72
2022/01/27 06:20:16;;;;;;;37.70;17.70;;;;;;;1.41;86.18;100071.52;107573;1273;108920;-71
2022/01/27 06:22:45;;;;;;;40.40;18.50;;;;;;;1.41;86.34;100069.63;107499;1275;108934;-71
2022/01/27 06:25:17;;;;;;;38.00;18.20;;;;;;;1.43;86.28;100067.41;107462;1274;140175;-72
2022/01/27 06:27:45;;;;;;;38.60;17.90;;;;;;;1.44;86.52;100067.60;107588;1273;96042;-72
2022/01/27 06:30:14;;;;;;;44.70;19.90;;;;;;;1.40;86.38;100061.06;107544;1274;139216;-72
2022/01/27 06:32:43;;;;;;;44.70;19.50;;;;;;;1.38;86.55;100053.18;107433;1276;109252;-71
2022/01/27 06:35:12;;;;;;;39.50;19.20;;;;;;;1.38;86.67;100046.67;107558;1273;108670;-72
2022/01/27 06:37:43;;;;;;;43.80;18.50;;;;;;;1.38;86.62;100041.36;107490;1272;139151;-73
2022/01/27 06:40:14;;;;;;;41.20;19.50;;;;;;;1.39;86.69;100038.28;107560;1273;96101;-73
2022/01/27 06:42:43;;;;;;;40.00;18.80;;;;;;;1.40;86.63;100035.36;107470;1274;138625;-71
2022/01/27 06:45:12;;;;;;;40.90;19.60;;;;;;;1.41;86.72;100033.31;107621;1274;108909;-71
2022/01/27 06:47:41;;;;;;;40.40;19.10;;;;;;;1.43;86.55;100032.13;107433;1273;138702;-71
2022/01/27 06:50:10;;;;;;;41.40;20.20;;;;;;;1.43;86.61;100027.66;107605;1273;96120;-70
2022/01/27 06:52:41;;;;;;;42.60;21.40;;;;;;;1.42;86.50;100025.09;107623;1273;96028;-72
2022/01/27 06:55:11;;;;;;;42.20;21.60;;;;;;;1.39;86.44;100032.29;107388;1274;137967;-72
2022/01/27 06:57:40;;;;;;;42.10;21.40;;;;;;;1.36;86.42;100030.74;107585;1274;107894;-72
2022/01/27 07:00:11;;;;;;;43.70;20.60;;;;;;;1.36;86.55;100028.86;107475;1273;139916;-71
2022/01/27 07:02:39;;;;;;;40.70;20.30;;;;;;;1.36;86.44;100019.78;107581;1273;95925;-71
2022/01/27 07:05:09;;;;;;;39.60;20.20;;;;;;;1.34;86.36;100013.45;107635;1274;95896;-71
2022/01/27 07:07:38;;;;;;;39.70;21.20;;;;;;;1.32;86.36;100012.08;107512;1273;138640;-72
2022/01/27 07:10:08;;;;;;;38.10;19.30;;;;;;;1.32;86.43;100018.07;107581;1274;109605;-71
2022/01/27 07:12:40;;;;;;;43.90;20.80;;;;;;;1.36;86.60;100017.22;107522;1273;138717;-72
2022/01/27 07:15:10;;;;;;;40.30;20.70;;;;;;;1.38;86.63;100015.15;107571;1274;95901;-72
2022/01/27 07:17:39;;;;;;;42.30;22.60;;;;;;;1.41;86.52;100013.27;107521;1274;138040;-72
2022/01/27 07:20:10;;;;;;;47.10;22.30;;;;;;;1.42;86.40;100019.26;107638;1274;113753;-71
2022/01/27 07:22:39;;;;;;;51.30;23.50;;;;;;;1.42;86.42;100012.06;107614;1272;109159;-72
2022/01/27 07:25:09;;;;;;;50.10;22.90;;;;;;;1.41;86.41;100014.46;107481;1274;138277;-72
2022/01/27 07:27:37;;;;;;;44.30;22.90;;;;;;;1.39;86.54;100007.45;107600;1274;96124;-72
2022/01/27 07:30:08;;;;;;;44.90;22.80;;;;;;;1.39;86.40;100013.44;107425;1274;139920;-71
2022/01/27 07:32:37;;;;;;;45.50;22.70;;;;;;;1.38;86.52;100006.42;107644;1273;112570;-72
2022/01/27 07:35:07;;;;;;;42.20;22.20;;;;;;;1.40;86.48;100005.05;107659;1273;107945;-72
2022/01/27 07:37:37;;;;;;;45.80;22.20;;;;;;;1.42;86.72;100005.05;107446;1274;139611;-72
2022/01/27 07:40:08;;;;;;;47.20;22.90;;;;;;;1.44;86.64;100008.67;107625;1274;96173;-72
2022/01/27 07:42:36;;;;;;;46.00;23.80;;;;;;;1.45;86.47;100010.39;107448;1276;138751;-73
2022/01/27 07:45:07;;;;;;;49.50;25.20;;;;;;;1.47;86.45;100010.90;107630;1273;112814;-71
2022/01/27 07:47:36;;;;;;;51.20;25.70;;;;;;;1.48;86.52;100011.08;107611;1274;108700;-73
2022/01/27 07:50:06;;;;;;;54.20;25.90;;;;;;;1.47;86.42;100011.07;107443;1273;139757;-73
2022/01/27 07:52:34;;;;;;;54.10;25.20;;;;;;;1.44;86.44;100006.62;107600;1274;96031;-73
2022/01/27 07:55:05;;;;;;;54.70;26.50;;;;;;;1.41;86.46;100005.21;107505;1274;138449;-73
2022/01/27 07:57:34;;;;;;;52.10;24.80;;;;;;;1.41;86.62;100002.47;107536;1273;113852;-72
2022/01/27 08:00:07;;;;;;;53.90;26.30;;;;;;;1.41;86.48;100000.42;107481;1273;139439;-72
2022/01/27 08:02:40;;;;;;;53.80;25.60;;;;;;;1.42;86.56;99985.00;107541;1274;108909;-72
2022/01/27 08:05:10;;;;;;;54.30;25.50;;;;;;;1.43;86.53;99974.90;107540;1273;95925;-73
2022/01/27 08:07:38;;;;;;;47.10;25.10;;;;;;;1.44;86.40;99977.48;107478;1274;138946;-73
2022/01/27 08:10:08;;;;;;;53.00;25.80;;;;;;;1.45;86.39;99980.24;107571;1273;112532;-73
2022/01/27 08:12:41;;;;;;;52.50;26.20;;;;;;;1.49;86.52;99984.34;107461;1274;138927;-73
2022/01/27 08:15:11;;;;;;;56.40;27.90;;;;;;;1.50;86.39;99977.48;107569;1273;108984;-71
2022/01/27 08:17:41;;;;;;;52.00;27.30;;;;;;;1.51;86.38;99969.27;107564;1273;95929;-72
2022/01/27 08:20:11;;;;;;;55.20;26.10;;;;;;;1.50;86.20;99960.87;107413;1273;138079;-74
2022/01/27 08:22:43;;;;;;;49.30;25.80;;;;;;;1.48;86.18;99955.90;107600;1274;112702;-72
2022/01/27 08:25:12;;;;;;;53.50;25.30;;;;;;;1.48;86.06;99940.83;107310;1275;138476;-71
2022/01/27 08:27:44;;;;;;;52.20;26.70;;;;;;;1.49;86.24;99939.27;107565;1274;107529;-71
2022/01/27 08:30:16;;;;;;;47.70;24.10;;;;;;;1.53;86.18;99932.24;107385;1275;138933;-70
2022/01/27 08:32:48;;;;;;;47.60;24.90;;;;;;;1.58;86.19;99919.55;107594;1273;96203;-70
2022/01/27 08:35:20;;;;;;;49.90;24.30;;;;;;;1.62;85.99;99932.58;107611;1274;112418;-71
2022/01/27 08:37:49;;;;;;;49.60;25.90;;;;;;;1.65;85.76;99929.34;107501;1274;138638;-71
2022/01/27 08:40:18;;;;;;;49.30;25.70;;;;;;;1.68;85.83;99936.86;107513;1273;107823;-71
2022/01/27 08:43:07;;;;;;;50.80;24.70;;;;;;;1.70;85.58;99924.17;107504;1274;139113;-72
2022/01/27 08:45:39;;;;;;;49.20;26.00;;;;;;;1.66;85.32;99914.08;107333;1274;97187;-71
2022/01/27 08:48:10;;;;;;;51.80;24.00;;;;;;;1.64;85.32;99915.80;107375;1273;139072;-72
2022/01/27 08:50:38;;;;;;;44.40;23.70;;;;;;;1.63;85.33;99912.20;107571;1273;109043;-72
2022/01/27 08:53:07;;;;;;;43.20;22.00;;;;;;;1.65;85.46;99903.63;107524;1273;108972;-71
2022/01/27 08:55:36;;;;;;;42.40;21.90;;;;;;;1.72;85.35;99908.40;107422;1274;141629;-71
2022/01/27 08:58:04;;;;;;;43.10;22.20;;;;;;;1.75;85.31;99918.34;107587;1273;96141;-72
2022/01/27 09:00:33;;;;;;;42.40;22.60;;;;;;;1.77;85.14;99917.30;107395;1273;138014;-72
2022/01/27 09:03:02;;;;;;;43.90;23.20;;;;;;;1.79;85.06;99919.01;107539;1273;109213;-71
2022/01/27 09:05:31;;;;;;;43.90;23.20;;;;;;;1.79;84.91;99916.09;107572;1274;108893;-72
2022/01/27 09:08:02;;;;;;;41.30;22.20;;;;;;;1.76;84.80;99908.72;107474;1273;137867;-71
2022/01/27 09:10:32;;;;;;;39.50;21.00;;;;;;;1.76;84.85;99908.73;107602;1274;96052;-71
2022/01/27 09:13:01;;;;;;;37.60;20.10;;;;;;;1.75;84.72;99904.79;107415;1273;138499;-71
2022/01/27 09:15:30;;;;;;;38.30;21.00;;;;;;;1.76;84.85;99900.50;107428;1272;108015;-73
2022/01/27 09:17:59;;;;;;;34.20;19.40;;;;;;;1.80;84.86;99897.94;107369;1273;139544;-71
2022/01/27 09:20:29;;;;;;;37.00;20.00;;;;;;;1.81;84.80;99889.55;107369;1273;96684;-70
2022/01/27 09:22:58;;;;;;;39.90;20.40;;;;;;;1.83;84.72;99882.50;107626;1274;96065;-72
2022/01/27 09:25:31;;;;;;;35.30;20.40;;;;;;;1.84;84.71;99876.33;107454;1273;139462;-73
2022/01/27 09:28:01;;;;;;;41.00;21.80;;;;;;;1.86;84.66;99869.80;107634;1273;108996;-73
2022/01/27 09:30:30;;;;;;;38.70;21.00;;;;;;;1.84;84.58;99876.16;107317;1276;139203;-72
2022/01/27 09:32:59;;;;;;;40.20;21.40;;;;;;;1.81;84.59;99866.23;107463;1273;96216;-71
2022/01/27 09:35:28;;;;;;;41.70;21.30;;;;;;;1.79;84.56;99870.33;107596;1274;96907;-71
2022/01/27 09:37:56;;;;;;;38.40;20.90;;;;;;;1.79;84.62;99861.23;107305;1274;139079;-73
2022/01/27 09:40:26;;;;;;;40.10;21.30;;;;;;;1.79;84.74;99863.65;107572;1274;105726;-71
2022/01/27 09:42:55;;;;;;;37.50;20.00;;;;;;;1.83;84.67;99854.91;107418;1273;139314;-72
2022/01/27 09:45:25;;;;;;;37.70;20.30;;;;;;;1.85;84.58;99846.84;107531;1273;96122;-71
2022/01/27 09:47:55;;;;;;;35.30;19.50;;;;;;;1.89;84.53;99852.48;107425;1273;138169;-72
2022/01/27 09:50:34;;;;;;;40.20;22.00;;;;;;;1.92;84.64;99845.26;107541;1276;112687;-72
2022/01/27 09:53:03;;;;;;;39.20;21.30;;;;;;;1.95;84.56;99847.98;107562;1273;109118;-73
2022/01/27 09:55:32;;;;;;;39.60;21.40;;;;;;;1.96;84.42;99841.98;107415;1273;138091;-73
2022/01/27 09:58:06;;;;;;;44.60;22.40;;;;;;;1.96;84.39;99840.61;107491;1273;96297;-72
2022/01/27 10:00:36;;;;;;;39.00;21.20;;;;;;;1.97;84.32;99836.50;107483;1274;137824;-72
2022/01/27 10:03:10;;;;;;;41.40;21.40;;;;;;;1.98;84.20;99832.73;107566;1273;112525;-72
2022/01/27 10:05:40;;;;;;;38.60;20.60;;;;;;;1.98;84.15;99825.71;107552;1274;109192;-72
2022/01/27 10:08:12;;;;;;;36.10;20.10;;;;;;;2.00;84.19;99825.54;107411;1273;139067;-71
2022/01/27 10:10:42;;;;;;;33.60;19.80;;;;;;;2.03;84.28;99818.14;107409;1274;96116;-71
2022/01/27 10:13:26;;;;;;;32.50;19.00;;;;;;;2.05;84.13;99811.10;107468;1273;138336;-70
2022/01/27 10:15:56;;;;;;;36.60;20.40;;;;;;;2.07;83.91;99807.14;107586;1273;111471;-71
2022/01/27 10:18:26;;;;;;;38.20;20.80;;;;;;;2.09;83.80;99808.49;107401;1273;138719;-71
2022/01/27 10:21:00;;;;;;;39.20;21.10;;;;;;;2.10;83.82;99801.80;107515;1273;109987;-71
2022/01/27 10:23:33;;;;;;;36.60;20.90;;;;;;;2.10;83.65;99802.14;107519;1274;96122;-71
2022/01/27 10:26:10;;;;;;;35.60;20.50;;;;;;;2.08;83.55;99796.67;107427;1273;138619;-71
2022/01/27 10:28:44;;;;;;;36.50;20.30;;;;;;;2.06;83.61;99795.48;107586;1274;111608;-71
2022/01/27 10:31:19;;;;;;;30.80;18.70;;;;;;;2.10;83.73;99799.91;107398;1274;139212;-71
2022/01/27 10:33:51;;;;;;;33.70;18.90;;;;;;;2.15;83.65;99789.95;107406;1276;108979;-73
2022/01/27 10:36:23;;;;;;;32.20;18.90;;;;;;;2.19;83.58;99784.62;107478;1274;139074;-71
2022/01/27 10:38:54;;;;;;;33.00;18.50;;;;;;;2.23;83.52;99783.73;107531;1274;96029;-73
2022/01/27 10:41:22;;;;;;;28.70;17.60;;;;;;;2.27;83.40;99781.30;107569;1274;112903;-71
2022/01/27 10:44:03;;;;;;;32.20;19.70;;;;;;;2.31;83.26;99778.00;107476;1273;139946;-71
2022/01/27 10:46:34;;;;;;;28.50;18.10;;;;;;;2.35;83.09;99779.55;107541;1274;108832;-71
2022/01/27 10:49:10;;;;;;;33.10;19.10;;;;;;;2.36;83.07;99776.28;107436;1274;137835;-71
2022/01/27 10:51:44;;;;;;;31.70;18.60;;;;;;;2.35;82.85;99766.52;107569;1273;96235;-72
2022/01/27 10:54:20;;;;;;;29.00;16.90;;;;;;;2.34;82.77;99756.56;107445;1273;138403;-72
2022/01/27 10:56:49;;;;;;;29.10;15.40;;;;;;;2.33;82.67;99753.13;107574;1273;109028;-72
2022/01/27 10:59:20;;;;;;;27.50;16.30;;;;;;;2.32;82.57;99751.58;107568;1273;108895;-72
2022/01/27 11:01:50;;;;;;;28.20;16.90;;;;;;;2.34;82.52;99741.12;107433;1274;138979;-72
2022/01/27 11:04:19;;;;;;;26.10;16.10;;;;;;;2.36;82.49;99736.48;107626;1273;96300;-72
2022/01/27 11:06:57;;;;;;;25.00;15.70;;;;;;;2.36;82.40;99736.65;107409;1273;138284;-71
2022/01/27 11:09:27;;;;;;;30.00;17.40;;;;;;;2.36;82.36;99726.88;107401;1276;109118;-71
2022/01/27 11:11:57;;;;;;;29.60;17.80;;;;;;;2.36;82.42;99729.79;107459;1273;138303;-72
2022/01/27 11:14:25;;;;;;;30.10;16.60;;;;;;;2.31;82.29;99721.23;107450;1274;96390;-72
2022/01/27 11:16:57;;;;;;;28.80;16.80;;;;;;;2.26;82.19;99712.52;107571;1273;95833;-72
2022/01/27 11:19:53;;;;;;;25.40;15.30;;;;;;;2.23;82.54;99713.91;107499;1273;138388;-71
2022/01/27 11:27:58;;;;;;;24.30;14.10;;;;;;;2.30;82.27;99689.66;107494;1276;96166;-71
2022/01/27 11:30:35;;;;;;;26.60;15.30;;;;;;;2.34;82.39;99686.73;107463;1273;138185;-71
2022/01/27 11:33:06;;;;;;;22.70;14.30;;;;;;;2.37;82.33;99681.91;107566;1274;112627;-71
2022/01/27 11:36:07;;;;;;;25.10;14.70;;;;;;;2.36;82.14;99681.41;107486;1273;139625;-71
2022/01/27 11:38:35;;;;;;;20.70;13.20;;;;;;;2.36;82.15;99673.00;107553;1273;108160;-72
2022/01/27 11:41:04;;;;;;;19.30;12.30;;;;;;;2.39;82.11;99673.31;107409;1276;96132;-71
2022/01/27 11:43:33;;;;;;;19.90;12.20;;;;;;;2.40;82.04;99666.27;107485;1273;139828;-72
2022/01/27 11:46:20;;;;;;;22.10;11.80;;;;;;;2.43;82.07;99668.13;107526;1273;112630;-72
2022/01/27 11:48:49;;;;;;;19.00;12.40;;;;;;;2.48;82.11;99658.13;107494;1274;139090;-72
2022/01/27 11:51:17;;;;;;;21.40;12.30;;;;;;;2.50;81.92;99658.61;107549;1274;108852;-71
2022/01/27 11:53:48;;;;;;;18.80;12.20;;;;;;;2.51;81.77;99654.33;107556;1273;96202;-72